Time;durP1;ratioP1;P1;durP2;ratioP2;P2;SDS_P1;SDS_P2;PMS_P1;PMS_P2;Temp;Humidity;BMP_temperature;BMP_pressure;BME280_temperature;BME280_humidity;BME280_pressure;Samples;Min_cycle;Max_cycle;Signal;HPM_P1;HPM_P2
2022/03/19 00:00:58;;;;;;;2.65;2.45;;;6.20;99.90;;;;;;5051503;28;20198;-75
2022/03/19 00:03:25;;;;;;;0.50;0.40;;;6.10;99.90;;;;;;5052184;28;20239;-77
2022/03/19 00:05:52;;;;;;;1.40;1.30;;;6.10;99.90;;;;;;5051215;28;20584;-77
2022/03/19 00:08:19;;;;;;;0.50;0.45;;;6.10;99.90;;;;;;5052138;28;20212;-75
2022/03/19 00:10:46;;;;;;;0.50;0.40;;;6.10;99.90;;;;;;5051135;28;20195;-79
2022/03/19 00:13:13;;;;;;;0.50;0.43;;;6.10;99.90;;;;;;5052225;28;20203;-77
2022/03/19 00:15:41;;;;;;;1.08;0.98;;;6.10;99.90;;;;;;5052386;28;20245;-77
2022/03/19 00:18:09;;;;;;;0.50;0.40;;;6.10;99.90;;;;;;5052071;28;20233;-78
2022/03/19 00:20:38;;;;;;;0.50;0.40;;;6.10;99.90;;;;;;5051453;28;20199;-77
2022/03/19 00:23:06;;;;;;;0.70;0.70;;;6.20;99.90;;;;;;5051792;28;20199;-78
2022/03/19 00:25:33;;;;;;;1.48;1.38;;;6.10;99.90;;;;;;5052152;28;20225;-75
2022/03/19 00:27:59;;;;;;;4.45;1.25;;;6.10;99.90;;;;;;5052211;28;20653;-78
2022/03/19 00:30:26;;;;;;;0.50;0.40;;;6.10;99.90;;;;;;5051194;28;20202;-78
2022/03/19 00:32:53;;;;;;;0.70;0.70;;;6.10;99.90;;;;;;5051206;28;20192;-78
2022/03/19 00:35:21;;;;;;;0.50;0.40;;;6.10;99.90;;;;;;5051784;28;20696;-78
2022/03/19 00:37:50;;;;;;;0.70;0.70;;;6.10;99.90;;;;;;5051980;28;20191;-77
2022/03/19 00:40:18;;;;;;;0.90;0.90;;;6.10;99.90;;;;;;5051193;28;20204;-77
2022/03/19 00:42:45;;;;;;;0.50;0.40;;;6.00;99.90;;;;;;5051584;28;20392;-77
2022/03/19 00:45:12;;;;;;;0.50;0.40;;;5.90;99.90;;;;;;5051424;28;20198;-77
2022/03/19 00:47:39;;;;;;;1.40;1.30;;;5.80;99.90;;;;;;5051567;28;20619;-77
2022/03/19 00:50:08;;;;;;;0.75;0.75;;;5.80;99.90;;;;;;5051349;28;20207;-77
2022/03/19 00:52:36;;;;;;;0.50;0.40;;;5.70;99.90;;;;;;5051700;28;20195;-77
2022/03/19 00:55:03;;;;;;;0.50;0.43;;;5.70;99.90;;;;;;5051705;28;20203;-77
2022/03/19 00:57:38;;;;;;;0.50;0.40;;;5.70;99.90;;;;;;5049985;28;20661;-77
2022/03/19 01:00:06;;;;;;;0.50;0.40;;;5.70;99.90;;;;;;5051838;28;20178;-77
2022/03/19 01:02:33;;;;;;;0.50;0.40;;;5.60;99.90;;;;;;5054243;28;20207;-78
2022/03/19 01:04:59;;;;;;;0.65;0.63;;;5.60;99.90;;;;;;5054473;28;20689;-77
2022/03/19 01:07:26;;;;;;;0.60;0.55;;;5.70;99.90;;;;;;5054931;28;20223;-77
2022/03/19 01:09:54;;;;;;;0.50;0.40;;;5.70;99.90;;;;;;5054879;28;20199;-78
2022/03/19 01:12:21;;;;;;;0.50;0.40;;;5.70;99.90;;;;;;5055291;28;20431;-77
2022/03/19 01:14:48;;;;;;;0.95;0.95;;;5.70;99.90;;;;;;5055384;28;20664;-76
2022/03/19 01:17:14;;;;;;;0.50;0.40;;;5.70;99.90;;;;;;5054612;28;20214;-77
2022/03/19 01:19:58;;;;;;;0.50;0.50;;;5.80;99.90;;;;;;5054388;28;20676;-77
2022/03/19 01:22:26;;;;;;;1.13;0.68;;;5.70;99.90;;;;;;5056250;28;20225;-79
2022/03/19 01:24:54;;;;;;;0.80;0.77;;;5.70;99.90;;;;;;5056487;28;20281;-79
2022/03/19 01:27:21;;;;;;;6.70;1.55;;;5.80;99.90;;;;;;5054958;28;20697;-78
2022/03/19 01:29:48;;;;;;;0.50;0.40;;;5.90;99.90;;;;;;5054264;28;20205;-78
2022/03/19 01:32:15;;;;;;;0.50;0.40;;;5.90;99.90;;;;;;5054667;28;20675;-78
2022/03/19 01:34:42;;;;;;;1.27;1.20;;;5.90;99.90;;;;;;5054776;28;20221;-78
2022/03/19 01:37:08;;;;;;;0.50;0.40;;;5.90;99.90;;;;;;5054619;28;20211;-74
2022/03/19 01:39:35;;;;;;;0.50;0.40;;;5.80;99.90;;;;;;5053402;28;20206;-78
2022/03/19 01:42:04;;;;;;;0.50;0.40;;;5.80;99.90;;;;;;5054790;28;20199;-78
2022/03/19 01:44:31;;;;;;;0.50;0.40;;;5.80;99.90;;;;;;5054912;28;20668;-76
2022/03/19 01:46:59;;;;;;;0.50;0.40;;;5.70;99.90;;;;;;5054718;28;20222;-78
2022/03/19 01:49:27;;;;;;;0.50;0.40;;;5.70;99.90;;;;;;5053710;28;20199;-78
2022/03/19 01:51:54;;;;;;;0.50;0.40;;;5.60;99.90;;;;;;5054332;28;20200;-77
2022/03/19 01:54:25;;;;;;;0.50;0.40;;;5.60;99.90;;;;;;5054082;28;20198;-78
2022/03/19 01:56:53;;;;;;;0.50;0.40;;;5.50;99.90;;;;;;5054424;28;20218;-78
2022/03/19 01:59:23;;;;;;;0.50;0.40;;;5.50;99.90;;;;;;5053303;28;20191;-78
2022/03/19 02:01:50;;;;;;;0.50;0.50;;;5.50;99.90;;;;;;5054574;28;20197;-77
2022/03/19 02:04:18;;;;;;;0.80;0.80;;;5.40;99.90;;;;;;5052943;28;20198;-77
2022/03/19 02:06:45;;;;;;;0.50;0.40;;;5.40;99.90;;;;;;5054430;28;20210;-77
2022/03/19 02:09:12;;;;;;;0.50;0.40;;;5.30;99.90;;;;;;5053394;28;20203;-73
2022/03/19 02:11:39;;;;;;;0.50;0.50;;;5.30;99.90;;;;;;5053824;28;20206;-77
2022/03/19 02:14:06;;;;;;;0.50;0.50;;;5.30;99.90;;;;;;5053943;28;20204;-77
2022/03/19 02:16:35;;;;;;;0.50;0.40;;;5.30;99.90;;;;;;5054142;28;20211;-78
2022/03/19 02:19:02;;;;;;;0.50;0.40;;;5.30;99.90;;;;;;5053191;28;20195;-78
2022/03/19 02:21:40;;;;;;;1.98;1.88;;;5.20;99.90;;;;;;5054081;28;20664;-77
2022/03/19 02:26:53;;;;;;;0.50;0.40;;;5.20;99.90;;;;;;5054042;28;20233;-78
2022/03/19 02:29:20;;;;;;;0.50;0.40;;;5.20;99.90;;;;;;5053285;28;20710;-78
2022/03/19 02:31:49;;;;;;;0.50;0.40;;;5.20;99.90;;;;;;5054425;28;20268;-77
2022/03/19 02:34:16;;;;;;;0.50;0.40;;;5.10;99.90;;;;;;5053605;28;20222;-76
2022/03/19 02:36:43;;;;;;;0.50;0.40;;;5.10;99.90;;;;;;5054338;28;20218;-78
2022/03/19 02:39:13;;;;;;;0.50;0.50;;;5.10;99.90;;;;;;5053511;28;20201;-78
2022/03/19 02:41:44;;;;;;;1.95;1.85;;;5.10;99.90;;;;;;5053909;28;20187;-78
2022/03/19 02:44:12;;;;;;;2.15;2.05;;;5.20;99.90;;;;;;5053723;28;20639;-78
2022/03/19 02:46:41;;;;;;;2.00;1.90;;;5.10;99.90;;;;;;5053807;28;20549;-78
2022/03/19 02:49:08;;;;;;;0.50;0.40;;;5.10;99.90;;;;;;5053341;28;20214;-78
2022/03/19 02:51:36;;;;;;;0.50;0.40;;;5.10;99.90;;;;;;5054419;28;20201;-78
2022/03/19 02:54:05;;;;;;;0.50;0.40;;;5.10;99.90;;;;;;5054151;28;20205;-79
2022/03/19 02:56:34;;;;;;;0.50;0.40;;;5.10;99.90;;;;;;5054149;28;20224;-78
2022/03/19 02:59:07;;;;;;;0.50;0.40;;;5.00;99.90;;;;;;5053661;28;20196;-79
2022/03/19 03:01:34;;;;;;;0.75;0.75;;;4.90;99.90;;;;;;5054462;28;20242;-78
2022/03/19 03:04:01;;;;;;;2.40;2.25;;;4.90;99.90;;;;;;5052323;28;20194;-78
2022/03/19 03:06:29;;;;;;;0.57;0.55;;;4.90;99.90;;;;;;5054573;28;20554;-79
2022/03/19 03:08:55;;;;;;;0.50;0.40;;;4.80;99.90;;;;;;5054418;28;20194;-78
2022/03/19 03:11:22;;;;;;;0.50;0.40;;;4.80;99.90;;;;;;5053931;28;20202;-79
2022/03/19 03:13:50;;;;;;;2.38;2.28;;;4.80;99.90;;;;;;5054097;28;20209;-78
2022/03/19 03:16:17;;;;;;;0.52;0.52;;;4.80;99.90;;;;;;5053842;28;20214;-79
2022/03/19 03:18:44;;;;;;;0.50;0.40;;;4.80;99.90;;;;;;5053916;28;20194;-76
2022/03/19 03:21:11;;;;;;;1.45;1.35;;;4.70;99.90;;;;;;5054020;28;20199;-78
2022/03/19 03:23:38;;;;;;;0.75;0.75;;;4.70;99.90;;;;;;5054247;28;20206;-79
2022/03/19 03:26:05;;;;;;;0.50;0.40;;;4.70;99.90;;;;;;5052981;28;20222;-78
2022/03/19 03:28:32;;;;;;;0.50;0.50;;;4.70;99.90;;;;;;5053885;28;20208;-79
2022/03/19 03:31:00;;;;;;;0.60;0.60;;;4.60;99.90;;;;;;5053367;28;20209;-79
2022/03/19 03:33:26;;;;;;;0.50;0.50;;;4.60;99.90;;;;;;5053612;28;20205;-79
2022/03/19 03:35:53;;;;;;;0.50;0.50;;;4.60;99.90;;;;;;5053464;28;20712;-78
2022/03/19 03:38:20;;;;;;;13.45;12.85;;;4.50;99.90;;;;;;5054155;28;20225;-79
2022/03/19 03:40:47;;;;;;;0.50;0.40;;;4.50;99.90;;;;;;5052748;28;20214;-78
2022/03/19 03:43:14;;;;;;;0.50;0.50;;;4.50;99.90;;;;;;5053991;28;20206;-78
2022/03/19 03:45:40;;;;;;;0.50;0.50;;;4.50;99.90;;;;;;5053430;28;20241;-78
2022/03/19 03:48:10;;;;;;;0.50;0.40;;;4.40;99.90;;;;;;5053343;28;20700;-76
2022/03/19 03:50:37;;;;;;;0.60;0.60;;;4.50;99.90;;;;;;5053047;28;20206;-77
2022/03/19 03:53:06;;;;;;;0.50;0.45;;;4.40;99.90;;;;;;5053599;28;20199;-78
2022/03/19 03:55:34;;;;;;;0.52;0.52;;;4.30;99.90;;;;;;5052932;28;20234;-78
2022/03/19 03:58:02;;;;;;;0.50;0.40;;;4.30;99.90;;;;;;5053358;28;20215;-78
2022/03/19 04:00:29;;;;;;;0.50;0.40;;;4.30;99.90;;;;;;5052085;28;20194;-79
2022/03/19 04:02:55;;;;;;;0.50;0.50;;;4.40;99.90;;;;;;5053465;28;20197;-78
2022/03/19 04:05:24;;;;;;;0.50;0.40;;;4.40;99.90;;;;;;5051440;28;20194;-78
2022/03/19 04:07:51;;;;;;;0.50;0.40;;;4.40;99.90;;;;;;5053102;28;20223;-79
2022/03/19 04:10:18;;;;;;;0.90;0.70;;;4.40;99.90;;;;;;5052426;28;20603;-78
2022/03/19 04:12:45;;;;;;;0.82;0.70;;;4.40;99.90;;;;;;5054753;28;20202;-78
2022/03/19 04:15:12;;;;;;;8.75;8.40;;;4.40;99.90;;;;;;5052975;28;20199;-78
2022/03/19 04:17:40;;;;;;;9.38;8.82;;;4.30;99.90;;;;;;5052871;28;20210;-76
2022/03/19 04:20:08;;;;;;;0.50;0.40;;;4.30;99.90;;;;;;5052321;28;20202;-79
2022/03/19 04:22:39;;;;;;;0.98;0.93;;;4.30;99.90;;;;;;5052507;28;20190;-77
2022/03/19 04:25:11;;;;;;;0.50;0.50;;;4.30;99.90;;;;;;5053072;28;20361;-78
2022/03/19 04:27:38;;;;;;;0.60;0.60;;;4.40;99.90;;;;;;5052505;28;20218;-76
2022/03/19 04:30:06;;;;;;;1.13;1.02;;;4.40;99.90;;;;;;5051522;28;20201;-79
2022/03/19 04:32:32;;;;;;;0.50;0.40;;;4.40;99.90;;;;;;5052715;28;20198;-78
2022/03/19 04:36:29;;;;;;;0.50;0.40;;;4.40;99.90;;;;;;5051651;28;20194;-78
2022/03/19 04:37:47;;;;;;;0.50;0.50;;;4.40;99.90;;;;;;5053409;28;20218;-78
2022/03/19 04:40:14;;;;;;;0.50;0.40;;;4.40;99.90;;;;;;5054971;28;20202;-75
2022/03/19 04:42:41;;;;;;;0.50;0.40;;;4.40;99.90;;;;;;5055949;28;20679;-77
2022/03/19 04:45:08;;;;;;;0.50;0.40;;;4.30;99.90;;;;;;5055983;28;20199;-74
2022/03/19 04:47:35;;;;;;;0.50;0.40;;;4.30;99.90;;;;;;5056023;28;20194;-78
2022/03/19 04:50:04;;;;;;;2.17;2.05;;;4.30;99.90;;;;;;5054929;28;20195;-78
2022/03/19 04:52:31;;;;;;;0.98;0.98;;;4.30;99.90;;;;;;5055980;28;20193;-78
2022/03/19 04:55:00;;;;;;;0.50;0.50;;;4.30;99.90;;;;;;5055732;28;20194;-78
2022/03/19 04:57:27;;;;;;;0.82;0.60;;;4.30;99.90;;;;;;5055348;28;20215;-78
2022/03/19 04:59:54;;;;;;;0.60;0.60;;;4.30;99.90;;;;;;5055050;28;20202;-76
2022/03/19 05:02:24;;;;;;;0.50;0.40;;;4.30;99.90;;;;;;5055753;28;20545;-78
2022/03/19 05:04:51;;;;;;;0.50;0.40;;;4.30;99.90;;;;;;5054558;28;20273;-79
2022/03/19 05:07:19;;;;;;;0.80;0.52;;;4.30;99.90;;;;;;5055633;28;20211;-78
2022/03/19 05:12:32;;;;;;;0.65;0.65;;;4.20;99.90;;;;;;5055012;28;20221;-78
2022/03/19 05:14:59;;;;;;;2.85;2.15;;;4.20;99.90;;;;;;5055505;28;20198;-78
2022/03/19 05:17:25;;;;;;;0.60;0.60;;;4.20;99.90;;;;;;5055057;28;20214;-79
2022/03/19 05:19:52;;;;;;;0.50;0.50;;;4.10;99.90;;;;;;5054854;28;20199;-78
2022/03/19 05:22:19;;;;;;;0.50;0.40;;;4.20;99.90;;;;;;5055310;28;20195;-75
2022/03/19 05:24:46;;;;;;;1.13;1.05;;;4.20;99.90;;;;;;5055108;28;20248;-79
2022/03/19 05:27:13;;;;;;;1.40;1.20;;;4.20;99.90;;;;;;5055898;28;20218;-77
2022/03/19 05:29:41;;;;;;;0.50;0.40;;;4.20;99.90;;;;;;5055970;28;20195;-80
2022/03/19 05:32:10;;;;;;;0.80;0.70;;;4.20;99.90;;;;;;5055946;28;20198;-80
2022/03/19 05:34:37;;;;;;;0.50;0.50;;;4.10;99.90;;;;;;5055883;28;20198;-77
2022/03/19 05:37:05;;;;;;;0.50;0.50;;;4.10;99.90;;;;;;5056042;28;20222;-78
2022/03/19 05:39:33;;;;;;;0.93;0.93;;;4.10;99.90;;;;;;5056063;28;20572;-79
2022/03/19 05:42:00;;;;;;;0.60;0.50;;;4.10;99.90;;;;;;5055340;28;20198;-78
2022/03/19 05:44:27;;;;;;;4.00;1.17;;;4.10;99.90;;;;;;5054804;28;20197;-79
2022/03/19 05:46:57;;;;;;;0.50;0.40;;;4.10;99.90;;;;;;5054458;28;20226;-78
2022/03/19 05:49:24;;;;;;;0.50;0.40;;;4.10;99.90;;;;;;5053768;28;20183;-78
2022/03/19 05:51:51;;;;;;;1.45;0.60;;;4.10;99.90;;;;;;5054461;28;20194;-77
2022/03/19 05:54:18;;;;;;;0.50;0.40;;;4.10;99.90;;;;;;5055158;28;20194;-80
2022/03/19 05:56:45;;;;;;;0.50;0.40;;;4.10;99.90;;;;;;5054287;28;20268;-78
2022/03/19 05:59:12;;;;;;;0.50;0.45;;;4.10;99.90;;;;;;5054261;28;20198;-78
2022/03/19 06:01:41;;;;;;;0.50;0.50;;;4.10;99.90;;;;;;5054311;28;20191;-79
2022/03/19 06:04:09;;;;;;;2.05;1.33;;;4.10;99.90;;;;;;5053092;28;20251;-79
2022/03/19 06:06:36;;;;;;;0.50;0.50;;;4.30;99.90;;;;;;5054226;28;20731;-77
2022/03/19 06:09:04;;;;;;;0.50;0.45;;;4.50;99.90;;;;;;5053517;28;20191;-77
2022/03/19 06:11:31;;;;;;;0.70;0.70;;;4.60;99.90;;;;;;5054398;28;20205;-79
2022/03/19 06:13:58;;;;;;;0.50;0.40;;;4.70;99.90;;;;;;5054401;28;20198;-78
2022/03/19 06:16:25;;;;;;;2.00;1.80;;;4.80;99.90;;;;;;5053557;28;20830;-77
2022/03/19 06:18:52;;;;;;;0.73;0.68;;;5.00;99.90;;;;;;5053546;28;20714;-78
2022/03/19 06:21:22;;;;;;;0.65;0.65;;;5.10;99.90;;;;;;5053838;28;20194;-76
2022/03/19 06:23:50;;;;;;;0.73;0.73;;;5.30;99.90;;;;;;5054048;28;20291;-77
2022/03/19 06:26:17;;;;;;;0.50;0.40;;;5.80;99.90;;;;;;5054090;28;20278;-77
2022/03/19 06:28:44;;;;;;;0.50;0.40;;;6.10;99.90;;;;;;5053900;28;20198;-77
2022/03/19 06:31:11;;;;;;;0.50;0.40;;;6.40;99.90;;;;;;5053829;28;20542;-79
2022/03/19 06:33:40;;;;;;;1.55;1.45;;;6.50;99.90;;;;;;5053720;28;20195;-78
2022/03/19 06:38:52;;;;;;;0.50;0.40;;;7.00;99.90;;;;;;5053532;28;20293;-78
2022/03/19 06:41:21;;;;;;;0.60;0.60;;;7.50;99.90;;;;;;5053757;28;20192;-76
2022/03/19 06:43:48;;;;;;;0.50;0.40;;;8.20;99.90;;;;;;5053788;28;20201;-77
2022/03/19 06:46:15;;;;;;;0.60;0.50;;;8.80;99.90;;;;;;5053800;28;20217;-80
2022/03/19 06:48:42;;;;;;;3.72;1.38;;;9.30;99.90;;;;;;5053757;28;20549;-78
2022/03/19 06:51:09;;;;;;;0.80;0.80;;;9.50;99.90;;;;;;5053765;28;20197;-77
2022/03/19 06:53:37;;;;;;;1.15;0.77;;;10.00;99.90;;;;;;5053460;28;20204;-76
2022/03/19 06:56:05;;;;;;;0.50;0.40;;;10.60;99.90;;;;;;5053110;28;20227;-79
2022/03/19 06:58:32;;;;;;;0.50;0.40;;;11.00;99.90;;;;;;5054367;28;20224;-79
2022/03/19 07:00:59;;;;;;;24.83;19.13;;;11.80;99.90;;;;;;5051325;28;20206;-77
2022/03/19 07:03:26;;;;;;;0.68;0.68;;;11.90;99.90;;;;;;5052779;28;20198;-77
2022/03/19 07:05:52;;;;;;;1.40;1.13;;;11.50;99.90;;;;;;5052141;28;20218;-77
2022/03/19 07:08:19;;;;;;;0.60;0.60;;;11.00;99.90;;;;;;5053552;28;20190;-77
2022/03/19 07:10:46;;;;;;;1.15;1.15;;;10.50;99.90;;;;;;5052491;28;20676;-78
2022/03/19 07:13:14;;;;;;;2.75;1.85;;;10.40;99.90;;;;;;5053432;28;20482;-76
2022/03/19 07:15:41;;;;;;;0.50;0.40;;;10.20;99.90;;;;;;5053641;28;20239;-78
2022/03/19 07:18:08;;;;;;;0.60;0.57;;;9.90;99.90;;;;;;5053278;28;20219;-78
2022/03/19 07:20:35;;;;;;;0.60;0.60;;;9.80;99.90;;;;;;5052394;28;20208;-78
2022/03/19 07:23:03;;;;;;;1.25;1.25;;;9.80;99.90;;;;;;5053648;28;20242;-77
2022/03/19 07:25:32;;;;;;;0.80;0.80;;;9.40;99.90;;;;;;5053856;28;20233;-79
2022/03/19 07:28:00;;;;;;;0.50;0.40;;;9.60;99.90;;;;;;5052480;28;20671;-77
2022/03/19 07:30:29;;;;;;;0.60;0.60;;;10.30;99.90;;;;;;5051878;28;20195;-77
2022/03/19 07:32:56;;;;;;;1.23;1.13;;;11.10;99.90;;;;;;5052382;28;20213;-78
2022/03/19 07:35:23;;;;;;;0.55;0.52;;;11.30;99.90;;;;;;5053141;28;20209;-78
2022/03/19 07:37:50;;;;;;;0.68;0.68;;;11.70;99.90;;;;;;5053055;28;20297;-78
2022/03/19 07:41:45;;;;;;;0.50;0.40;;;11.40;99.90;;;;;;5052280;28;20198;-74
2022/03/19 07:43:06;;;;;;;0.50;0.40;;;11.60;99.90;;;;;;5052545;28;20770;-76
2022/03/19 07:45:34;;;;;;;1.58;1.48;;;12.10;99.90;;;;;;5053256;28;20217;-80
2022/03/19 07:48:01;;;;;;;0.50;0.40;;;12.20;99.90;;;;;;5053971;28;20217;-77
2022/03/19 07:50:28;;;;;;;0.50;0.40;;;12.10;99.90;;;;;;5053005;28;20193;-77
2022/03/19 07:52:54;;;;;;;0.82;0.82;;;11.90;99.90;;;;;;5053904;28;20206;-77
2022/03/19 07:55:21;;;;;;;0.50;0.40;;;12.20;99.90;;;;;;5053948;28;20707;-77
2022/03/19 07:57:48;;;;;;;0.50;0.40;;;12.60;99.90;;;;;;5053653;28;20218;-76
2022/03/19 08:00:15;;;;;;;0.50;0.47;;;13.50;99.90;;;;;;5052323;28;20199;-77
2022/03/19 08:02:44;;;;;;;0.50;0.40;;;14.70;99.90;;;;;;5053353;28;20438;-80
2022/03/19 08:05:12;;;;;;;0.67;0.67;;;15.80;99.90;;;;;;5053231;28;20444;-76
2022/03/19 08:07:39;;;;;;;1.70;0.93;;;16.80;98.50;;;;;;5053778;28;20447;-77
2022/03/19 08:10:07;;;;;;;0.50;0.30;;;17.70;92.40;;;;;;5052904;28;20827;-76
2022/03/19 08:12:34;;;;;;;0.60;0.50;;;18.40;83.40;;;;;;5052998;28;20445;-77
2022/03/19 08:15:03;;;;;;;0.93;0.93;;;18.90;78.80;;;;;;5053921;28;20468;-77
2022/03/19 08:17:30;;;;;;;0.50;0.40;;;18.10;77.60;;;;;;5052267;28;20468;-77
2022/03/19 08:19:59;;;;;;;0.50;0.50;;;18.00;78.20;;;;;;5052597;28;20892;-76
2022/03/19 08:22:26;;;;;;;0.60;0.57;;;18.30;78.50;;;;;;5053245;28;20433;-77
2022/03/19 08:24:53;;;;;;;2.10;0.70;;;18.60;74.80;;;;;;5053159;28;20448;-76
2022/03/19 08:27:22;;;;;;;3.27;3.03;;;18.70;73.70;;;;;;5053289;28;20515;-78
2022/03/19 08:29:49;;;;;;;1.70;1.60;;;18.20;75.70;;;;;;5051639;28;20437;-77
2022/03/19 08:32:15;;;;;;;0.50;0.40;;;19.00;75.50;;;;;;5052866;28;20435;-79
2022/03/19 08:34:43;;;;;;;0.87;0.80;;;19.50;72.30;;;;;;5052965;28;20448;-80
2022/03/19 08:37:11;;;;;;;0.50;0.40;;;19.50;71.20;;;;;;5053985;28;20461;-77
2022/03/19 08:42:23;;;;;;;0.50;0.40;;;19.80;70.30;;;;;;5051349;28;20807;-77
2022/03/19 08:44:51;;;;;;;1.63;1.57;;;20.60;68.90;;;;;;5051743;28;20486;-78
2022/03/19 08:47:19;;;;;;;0.60;0.60;;;20.90;66.40;;;;;;5051797;28;20511;-78
2022/03/19 08:49:46;;;;;;;0.50;0.50;;;20.90;64.80;;;;;;5051233;28;20437;-78
2022/03/19 08:52:14;;;;;;;1.00;0.70;;;21.10;65.00;;;;;;5051364;28;20935;-77
2022/03/19 08:54:40;;;;;;;0.73;0.70;;;20.80;61.60;;;;;;5051260;28;20437;-78
2022/03/19 08:57:07;;;;;;;0.50;0.40;;;20.30;63.10;;;;;;5051420;28;20479;-78
2022/03/19 08:59:34;;;;;;;0.70;0.60;;;20.80;63.30;;;;;;5050795;28;20468;-78
2022/03/19 09:02:01;;;;;;;0.60;0.47;;;21.10;61.60;;;;;;5051141;28;20445;-78
2022/03/19 09:04:27;;;;;;;0.50;0.40;;;20.10;59.40;;;;;;5049448;28;20495;-78
2022/03/19 09:06:54;;;;;;;0.70;0.63;;;20.10;62.80;;;;;;5051572;28;20448;-78
2022/03/19 09:09:22;;;;;;;0.50;0.40;;;20.50;62.20;;;;;;5050587;28;20933;-78
2022/03/19 09:11:49;;;;;;;0.60;0.60;;;21.50;61.20;;;;;;5051610;28;20436;-78
2022/03/19 09:14:16;;;;;;;0.50;0.30;;;21.70;57.90;;;;;;5052385;28;20890;-77
2022/03/19 09:16:43;;;;;;;0.57;0.43;;;21.00;57.60;;;;;;5053256;28;20523;-77
2022/03/19 09:19:10;;;;;;;0.60;0.50;;;21.80;58.70;;;;;;5051040;28;20487;-78
2022/03/19 09:21:37;;;;;;;0.50;0.40;;;20.70;57.00;;;;;;5051904;28;20445;-77
2022/03/19 09:24:05;;;;;;;0.50;0.40;;;20.80;56.90;;;;;;5053658;28;20440;-77
2022/03/19 09:26:33;;;;;;;0.60;0.53;;;20.80;56.40;;;;;;5055091;28;20461;-78
2022/03/19 09:29:00;;;;;;;0.60;0.40;;;21.00;55.80;;;;;;5054737;28;20930;-79
2022/03/19 09:31:27;;;;;;;1.17;1.07;;;20.30;55.40;;;;;;5054987;28;20417;-77
2022/03/19 09:33:54;;;;;;;0.50;0.30;;;20.80;56.20;;;;;;5054663;28;20476;-81
2022/03/19 09:36:21;;;;;;;0.50;0.30;;;20.70;56.00;;;;;;5055020;28;20465;-77
2022/03/19 09:38:47;;;;;;;0.50;0.40;;;21.10;55.00;;;;;;5054263;28;20481;-74
2022/03/19 09:41:14;;;;;;;0.93;0.67;;;21.00;54.90;;;;;;5054720;28;20452;-77
2022/03/19 09:43:43;;;;;;;1.10;0.80;;;19.90;53.90;;;;;;5054341;28;20487;-77
2022/03/19 09:46:10;;;;;;;0.50;0.37;;;19.30;55.20;;;;;;5054419;28;20464;-77
2022/03/19 09:48:37;;;;;;;1.13;1.07;;;19.30;54.40;;;;;;5054633;28;20884;-77
2022/03/19 09:51:08;;;;;;;0.53;0.40;;;18.60;53.50;;;;;;5053907;28;20452;-78
2022/03/19 09:53:35;;;;;;;3.67;1.43;;;18.60;53.90;;;;;;5054191;28;20441;-79
2022/03/19 09:56:03;;;;;;;0.60;0.50;;;18.60;54.60;;;;;;5053737;28;20469;-78
2022/03/19 09:58:30;;;;;;;0.50;0.30;;;18.80;54.80;;;;;;5054470;28;20513;-80
2022/03/19 10:01:05;;;;;;;0.70;0.50;;;19.60;55.40;;;;;;5054029;28;20445;-77
2022/03/19 10:03:34;;;;;;;1.10;0.70;;;20.30;54.00;;;;;;5054007;28;20423;-74
2022/03/19 10:08:55;;;;;;;0.50;0.40;;;20.20;50.80;;;;;;5054413;28;20422;-76
2022/03/19 10:11:22;;;;;;;0.50;0.30;;;20.20;51.50;;;;;;5055615;28;20923;-76
2022/03/19 10:13:52;;;;;;;0.50;0.30;;;21.30;51.50;;;;;;5054797;28;20442;-78
2022/03/19 10:16:22;;;;;;;0.60;0.57;;;22.10;50.10;;;;;;5054537;28;20555;-78
2022/03/19 10:18:55;;;;;;;0.50;0.40;;;22.10;49.00;;;;;;5054005;28;20823;-77
2022/03/19 10:21:22;;;;;;;0.93;0.73;;;22.30;48.60;;;;;;5053986;28;20857;-78
2022/03/19 10:23:48;;;;;;;0.60;0.60;;;21.60;46.80;;;;;;5054100;28;20453;-76
2022/03/19 10:26:26;;;;;;;0.50;0.40;;;21.00;47.20;;;;;;5053912;28;20461;-77
2022/03/19 10:29:00;;;;;;;0.50;0.40;;;21.00;49.00;;;;;;5053013;28;21088;-79
2022/03/19 10:31:33;;;;;;;0.50;0.30;;;21.10;46.60;;;;;;5053977;28;20969;-78
2022/03/19 10:34:00;;;;;;;0.60;0.50;;;21.10;45.40;;;;;;5053728;28;20938;-78
2022/03/19 10:36:32;;;;;;;0.50;0.30;;;20.80;46.30;;;;;;5053939;28;20468;-77
2022/03/19 10:38:59;;;;;;;0.50;0.40;;;20.50;45.90;;;;;;5054556;28;20527;-76
2022/03/19 10:41:27;;;;;;;0.50;0.40;;;20.80;46.30;;;;;;5056222;28;20435;-76
2022/03/19 10:43:54;;;;;;;0.50;0.40;;;21.10;45.00;;;;;;5056256;28;20445;-77
2022/03/19 10:46:20;;;;;;;0.50;0.30;;;21.30;43.00;;;;;;5056671;28;20823;-76
2022/03/19 10:48:54;;;;;;;1.47;0.93;;;20.80;42.60;;;;;;5055432;28;20494;-76
2022/03/19 10:51:21;;;;;;;0.50;0.37;;;20.70;43.30;;;;;;5053744;28;20454;-75
2022/03/19 10:53:49;;;;;;;0.50;0.30;;;20.70;45.10;;;;;;5053974;28;20438;-79
2022/03/19 10:56:16;;;;;;;4.63;1.67;;;20.80;42.40;;;;;;5053651;28;20476;-78
2022/03/19 10:58:43;;;;;;;0.50;0.40;;;20.60;40.90;;;;;;5053516;28;20484;-77
2022/03/19 11:01:12;;;;;;;1.10;0.73;;;20.60;41.40;;;;;;5053009;28;20437;-78
2022/03/19 11:03:42;;;;;;;2.63;2.00;;;20.50;40.30;;;;;;5052875;28;20992;-78
2022/03/19 11:06:11;;;;;;;0.73;0.60;;;21.00;41.40;;;;;;5052593;28;20468;-77
2022/03/19 11:08:43;;;;;;;0.60;0.40;;;21.10;40.50;;;;;;5053806;28;20448;-77
2022/03/19 11:11:15;;;;;;;0.50;0.40;;;20.70;40.40;;;;;;5053169;28;20430;-77
2022/03/19 11:13:49;;;;;;;0.50;0.40;;;20.70;39.60;;;;;;5053291;28;20891;-76
2022/03/19 11:16:16;;;;;;;0.50;0.30;;;20.40;39.20;;;;;;5053459;28;20461;-78
2022/03/19 11:18:44;;;;;;;0.50;0.30;;;20.10;39.20;;;;;;5053260;28;20528;-78
2022/03/19 11:21:15;;;;;;;0.50;0.40;;;19.60;39.20;;;;;;5053276;28;20437;-77
2022/03/19 11:23:49;;;;;;;0.50;0.40;;;19.50;39.40;;;;;;5053516;28;20440;-77
2022/03/19 11:26:22;;;;;;;0.50;0.40;;;19.20;39.20;;;;;;5053054;28;20464;-77
2022/03/19 11:28:49;;;;;;;0.70;0.70;;;18.70;39.30;;;;;;5053368;28;20437;-76
2022/03/19 11:31:26;;;;;;;2.00;1.57;;;19.10;40.90;;;;;;5053030;28;20540;-78
2022/03/19 11:33:59;;;;;;;0.50;0.30;;;19.20;39.60;;;;;;5053083;28;20500;-79
2022/03/19 11:36:27;;;;;;;1.27;0.70;;;19.40;38.50;;;;;;5053082;28;20461;-78
2022/03/19 11:38:56;;;;;;;0.50;0.30;;;20.00;39.70;;;;;;5052358;28;20592;-77
2022/03/19 11:41:25;;;;;;;0.50;0.40;;;20.20;39.50;;;;;;5053281;28;20445;-77
2022/03/19 11:44:07;;;;;;;0.50;0.30;;;20.20;38.10;;;;;;5053222;28;20813;-77
2022/03/19 11:46:55;;;;;;;1.03;0.87;;;19.20;37.40;;;;;;5052189;28;20468;-76
2022/03/19 11:49:44;;;;;;;0.50;0.40;;;18.70;38.30;;;;;;5052258;28;20514;-76
2022/03/19 11:52:16;;;;;;;1.30;0.50;;;18.30;39.40;;;;;;5052682;28;20516;-77
2022/03/19 11:55:04;;;;;;;0.50;0.30;;;18.30;40.00;;;;;;5052451;28;20420;-79
2022/03/19 11:57:48;;;;;;;0.60;0.60;;;18.50;40.70;;;;;;5052547;28;20464;-77
2022/03/19 12:00:16;;;;;;;0.50;0.30;;;19.00;41.50;;;;;;5051524;28;20822;-77
2022/03/19 12:03:08;;;;;;;0.50;0.40;;;19.20;41.90;;;;;;5052788;28;20445;-77
2022/03/19 12:05:36;;;;;;;0.50;0.30;;;19.40;42.80;;;;;;5051231;28;20449;-77
2022/03/19 12:08:13;;;;;;;0.50;0.40;;;20.10;42.50;;;;;;5052467;28;20433;-77
2022/03/19 12:10:57;;;;;;;0.50;0.30;;;20.80;43.40;;;;;;5051725;28;20433;-78
2022/03/19 12:13:42;;;;;;;0.50;0.40;;;21.00;42.20;;;;;;5052302;28;20673;-75
2022/03/19 12:16:12;;;;;;;0.50;0.30;;;20.60;41.60;;;;;;5052209;28;20489;-77
2022/03/19 12:18:48;;;;;;;0.50;0.40;;;20.70;42.20;;;;;;5051855;28;20437;-77
2022/03/19 12:21:21;;;;;;;0.70;0.57;;;20.90;41.60;;;;;;5051803;28;20445;-78
2022/03/19 12:24:17;;;;;;;0.60;0.40;;;21.20;42.00;;;;;;5052879;28;20464;-78
2022/03/19 12:26:46;;;;;;;0.50;0.30;;;22.00;40.90;;;;;;5052393;28;20974;-78
2022/03/19 12:29:16;;;;;;;0.50;0.40;;;22.30;41.70;;;;;;5051825;28;20966;-77
2022/03/19 12:31:45;;;;;;;1.03;0.87;;;21.80;39.60;;;;;;5051581;28;20457;-77
2022/03/19 12:34:15;;;;;;;0.57;0.40;;;20.90;39.60;;;;;;5052093;28;20432;-77
2022/03/19 12:36:42;;;;;;;0.50;0.30;;;20.30;39.50;;;;;;5051866;28;20496;-78
2022/03/19 12:39:09;;;;;;;0.80;0.50;;;20.50;42.30;;;;;;5051490;28;20437;-78
2022/03/19 12:41:37;;;;;;;0.60;0.57;;;21.10;40.60;;;;;;5051970;28;20926;-76
2022/03/19 12:44:06;;;;;;;0.70;0.70;;;21.30;41.00;;;;;;5053151;28;20443;-76
2022/03/19 12:46:34;;;;;;;1.17;1.07;;;20.90;40.00;;;;;;5049282;28;21029;-77
2022/03/19 12:49:03;;;;;;;0.50;0.40;;;20.80;40.00;;;;;;5050880;28;20437;-77
2022/03/19 12:51:31;;;;;;;0.60;0.40;;;20.90;38.60;;;;;;5051438;28;20443;-77
2022/03/19 12:53:58;;;;;;;0.50;0.30;;;20.50;39.30;;;;;;5051889;28;20935;-77
2022/03/19 12:56:27;;;;;;;0.50;0.37;;;20.80;41.50;;;;;;5051439;28;21066;-77
2022/03/19 12:58:58;;;;;;;0.50;0.40;;;20.90;40.50;;;;;;5054477;28;20965;-78
2022/03/19 13:01:26;;;;;;;0.50;0.30;;;21.10;39.30;;;;;;5055811;28;20945;-75
2022/03/19 13:03:56;;;;;;;1.67;1.57;;;21.00;39.50;;;;;;5055756;28;20453;-79
2022/03/19 13:06:30;;;;;;;0.60;0.60;;;21.40;40.50;;;;;;5055779;28;20988;-76
2022/03/19 13:08:57;;;;;;;0.60;0.50;;;21.20;39.80;;;;;;5055582;28;20505;-75
2022/03/19 13:11:24;;;;;;;0.50;0.37;;;21.00;39.00;;;;;;5055987;28;20433;-79
2022/03/19 13:13:52;;;;;;;0.93;0.40;;;20.90;39.80;;;;;;5055793;28;20443;-77